Terminal Aerodrome Forecast
Issued by NWS Nashville, TN

Home | Current Version | Previous Version | Text Only | Print | Product List | Glossary On
Versions: 1 2 3 4 5 6 7 8 9 10 11 12 13 14 15 16 17 18
000
FTUS44 KOHX 021100
TAFCSV
TAF
KCSV 021120Z 0212/0312 36009KT 4SM BR BKN003 OVC012
      TEMPO 0212/0215 3SM -DZ BR OVC003
     FM021800 04006KT P6SM OVC025
     FM022000 04005KT P6SM BKN040
     FM030200 12004KT 4SM BR VCSH OVC015=

USA.gov is the U.S. government's official web portal to all federal, state and local government web resources and services.